sensor_id;sensor_type;location;lat;lon;timestamp;P1;durP1;ratioP1;P2;durP2;ratioP2
60426;SDS011;46274;47.168;27.604;2024-01-16T08:45:37;18.40;;;6.47;;
60426;SDS011;46274;47.168;27.604;2024-01-16T09:14:50;14.67;;;6.03;;
60426;SDS011;46274;47.168;27.604;2024-01-16T09:28:43;14.10;;;5.70;;
60426;SDS011;46274;47.168;27.604;2024-01-16T09:42:29;9.50;;;4.23;;
60426;SDS011;46274;47.168;27.604;2024-01-16T09:48:56;10.20;;;4.57;;
60426;SDS011;46274;47.168;27.604;2024-01-16T09:55:11;10.40;;;4.70;;
60426;SDS011;46274;47.168;27.604;2024-01-16T10:10:20;10.23;;;4.80;;
60426;SDS011;46274;47.168;27.604;2024-01-16T10:24:17;12.20;;;4.73;;
60426;SDS011;46274;47.168;27.604;2024-01-16T10:38:32;9.90;;;3.90;;
60426;SDS011;46274;47.168;27.604;2024-01-16T10:45:17;7.47;;;3.60;;
60426;SDS011;46274;47.168;27.604;2024-01-16T11:14:26;8.30;;;3.57;;
60426;SDS011;46274;47.168;27.604;2024-01-16T11:21:12;6.17;;;3.07;;
60426;SDS011;46274;47.168;27.604;2024-01-16T11:28:13;7.20;;;3.30;;
60426;SDS011;46274;47.168;27.604;2024-01-16T11:41:16;12.47;;;3.57;;
60426;SDS011;46274;47.168;27.604;2024-01-16T11:48:08;6.53;;;3.10;;
60426;SDS011;46274;47.168;27.604;2024-01-16T12:01:43;4.87;;;2.50;;
60426;SDS011;46274;47.168;27.604;2024-01-16T12:08:05;8.47;;;1.90;;
60426;SDS011;46274;47.168;27.604;2024-01-16T12:21:07;3.60;;;1.60;;
60426;SDS011;46274;47.168;27.604;2024-01-16T12:27:29;3.07;;;1.50;;
60426;SDS011;46274;47.168;27.604;2024-01-16T12:40:52;9.70;;;1.93;;
60426;SDS011;46274;47.168;27.604;2024-01-16T12:47:04;4.10;;;1.57;;
60426;SDS011;46274;47.168;27.604;2024-01-16T12:53:42;12.47;;;2.07;;
60426;SDS011;46274;47.168;27.604;2024-01-16T13:13:30;7.00;;;1.83;;
60426;SDS011;46274;47.168;27.604;2024-01-16T13:20:20;4.40;;;1.63;;
60426;SDS011;46274;47.168;27.604;2024-01-16T13:33:53;5.17;;;1.80;;
60426;SDS011;46274;47.168;27.604;2024-01-16T13:40:19;3.27;;;1.47;;
60426;SDS011;46274;47.168;27.604;2024-01-16T13:54:05;2.07;;;1.10;;
60426;SDS011;46274;47.168;27.604;2024-01-16T14:00:45;3.73;;;1.87;;
60426;SDS011;46274;47.168;27.604;2024-01-16T14:14:03;25.77;;;8.90;;
60426;SDS011;46274;47.168;27.604;2024-01-16T14:20:07;18.00;;;6.30;;
60426;SDS011;46274;47.168;27.604;2024-01-16T14:26:18;8.73;;;3.63;;
60426;SDS011;46274;47.168;27.604;2024-01-16T14:32:27;10.73;;;3.63;;
60426;SDS011;46274;47.168;27.604;2024-01-16T14:38:39;17.60;;;5.07;;
60426;SDS011;46274;47.168;27.604;2024-01-16T14:44:52;21.73;;;5.93;;
60426;SDS011;46274;47.168;27.604;2024-01-16T14:50:55;13.00;;;5.53;;
60426;SDS011;46274;47.168;27.604;2024-01-16T14:56:58;21.73;;;7.73;;
60426;SDS011;46274;47.168;27.604;2024-01-16T15:03:09;21.00;;;6.60;;
60426;SDS011;46274;47.168;27.604;2024-01-16T15:09:11;13.07;;;5.30;;
60426;SDS011;46274;47.168;27.604;2024-01-16T15:15:14;23.10;;;6.70;;
60426;SDS011;46274;47.168;27.604;2024-01-16T15:21:20;6.43;;;2.47;;
60426;SDS011;46274;47.168;27.604;2024-01-16T15:27:22;6.03;;;3.00;;
60426;SDS011;46274;47.168;27.604;2024-01-16T15:33:25;8.63;;;3.60;;
60426;SDS011;46274;47.168;27.604;2024-01-16T15:39:30;5.43;;;2.33;;
60426;SDS011;46274;47.168;27.604;2024-01-16T15:45:38;6.37;;;2.73;;
60426;SDS011;46274;47.168;27.604;2024-01-16T15:51:41;5.77;;;3.03;;
60426;SDS011;46274;47.168;27.604;2024-01-16T15:57:54;4.93;;;2.70;;
60426;SDS011;46274;47.168;27.604;2024-01-16T16:03:58;5.50;;;2.57;;
60426;SDS011;46274;47.168;27.604;2024-01-16T16:10:01;12.13;;;4.47;;
60426;SDS011;46274;47.168;27.604;2024-01-16T16:16:03;10.97;;;4.47;;
60426;SDS011;46274;47.168;27.604;2024-01-16T16:22:06;16.67;;;6.77;;
60426;SDS011;46274;47.168;27.604;2024-01-16T16:28:09;30.23;;;12.60;;
60426;SDS011;46274;47.168;27.604;2024-01-16T16:34:15;28.63;;;12.20;;
60426;SDS011;46274;47.168;27.604;2024-01-16T16:40:33;18.10;;;9.27;;
60426;SDS011;46274;47.168;27.604;2024-01-16T16:46:39;25.17;;;10.70;;
60426;SDS011;46274;47.168;27.604;2024-01-16T16:52:44;49.63;;;18.70;;
60426;SDS011;46274;47.168;27.604;2024-01-16T16:58:51;74.53;;;28.50;;
60426;SDS011;46274;47.168;27.604;2024-01-16T17:05:03;18.30;;;8.97;;
60426;SDS011;46274;47.168;27.604;2024-01-16T17:11:06;47.13;;;16.20;;
60426;SDS011;46274;47.168;27.604;2024-01-16T17:17:14;23.03;;;10.80;;
60426;SDS011;46274;47.168;27.604;2024-01-16T17:23:22;25.37;;;10.70;;
60426;SDS011;46274;47.168;27.604;2024-01-16T17:29:28;42.20;;;17.43;;
60426;SDS011;46274;47.168;27.604;2024-01-16T17:35:39;194.07;;;52.63;;
60426;SDS011;46274;47.168;27.604;2024-01-16T17:41:51;107.30;;;32.60;;
60426;SDS011;46274;47.168;27.604;2024-01-16T17:47:58;41.23;;;19.60;;
60426;SDS011;46274;47.168;27.604;2024-01-16T17:54:06;45.63;;;15.63;;
60426;SDS011;46274;47.168;27.604;2024-01-16T18:00:16;36.57;;;13.70;;
60426;SDS011;46274;47.168;27.604;2024-01-16T18:06:22;66.13;;;20.50;;
60426;SDS011;46274;47.168;27.604;2024-01-16T18:12:24;83.73;;;28.27;;
60426;SDS011;46274;47.168;27.604;2024-01-16T18:18:49;29.17;;;13.40;;
60426;SDS011;46274;47.168;27.604;2024-01-16T18:25:00;19.60;;;7.83;;
60426;SDS011;46274;47.168;27.604;2024-01-16T18:31:18;16.87;;;8.23;;
60426;SDS011;46274;47.168;27.604;2024-01-16T18:37:26;29.10;;;11.33;;
60426;SDS011;46274;47.168;27.604;2024-01-16T18:43:29;15.47;;;7.17;;
60426;SDS011;46274;47.168;27.604;2024-01-16T18:49:49;19.17;;;8.80;;
60426;SDS011;46274;47.168;27.604;2024-01-16T18:55:59;12.10;;;5.73;;
60426;SDS011;46274;47.168;27.604;2024-01-16T19:02:03;20.30;;;9.07;;
60426;SDS011;46274;47.168;27.604;2024-01-16T19:08:18;54.60;;;18.93;;
60426;SDS011;46274;47.168;27.604;2024-01-16T19:14:32;131.07;;;46.97;;
60426;SDS011;46274;47.168;27.604;2024-01-16T19:20:40;90.33;;;35.77;;
60426;SDS011;46274;47.168;27.604;2024-01-16T19:26:48;137.17;;;47.07;;
60426;SDS011;46274;47.168;27.604;2024-01-16T19:32:59;120.07;;;42.03;;
60426;SDS011;46274;47.168;27.604;2024-01-16T19:39:22;38.70;;;15.50;;
60426;SDS011;46274;47.168;27.604;2024-01-16T19:45:39;101.20;;;32.97;;
60426;SDS011;46274;47.168;27.604;2024-01-16T19:51:55;58.13;;;20.30;;
60426;SDS011;46274;47.168;27.604;2024-01-16T20:05:36;53.07;;;19.83;;
60426;SDS011;46274;47.168;27.604;2024-01-16T20:12:34;36.47;;;15.80;;
60426;SDS011;46274;47.168;27.604;2024-01-16T20:33:23;46.93;;;19.80;;
60426;SDS011;46274;47.168;27.604;2024-01-16T20:40:04;52.67;;;21.03;;
60426;SDS011;46274;47.168;27.604;2024-01-16T21:00:58;41.07;;;16.60;;
60426;SDS011;46274;47.168;27.604;2024-01-16T21:15:18;47.03;;;18.03;;
60426;SDS011;46274;47.168;27.604;2024-01-16T22:13:29;24.50;;;8.87;;
60426;SDS011;46274;47.168;27.604;2024-01-16T22:42:24;24.87;;;9.57;;
60426;SDS011;46274;47.168;27.604;2024-01-16T22:48:35;18.90;;;7.70;;
60426;SDS011;46274;47.168;27.604;2024-01-16T23:25:31;14.80;;;5.93;;
